Terminal Aerodrome Forecast
Issued by NWS Charleston, WV

Current Version | Previous Version | Graphics & Text | Print | Product List | Glossary On
Versions: 1 2 3 4 5 6 7 8 9 10 11 12 13 14 15 16 17 18 19 20 21 22 23 24 25 26 27 28
000
FTUS41 KRLX 132300
TAFEKN
TAF
KEKN 132320Z 1400/1424 19004KT P6SM SCT250
     FM141100 20007KT P6SM BKN200
     FM141500 20011G17KT P6SM BKN150
     FM141800 20015G26KT P6SM BKN050
     FM142100 21013G23KT P6SM VCTS BKN040CB=

USA.gov is the U.S. government's official web portal to all federal, state and local government web resources and services.